Linz Airport LOWL

Flugplatz Daten

Name: Linz Airport

Ident: LOWL

Lat: 48,23320007

Long: 14,1875

Platzhöhe: 978 ft

IataCode: LNZ

City: Linz

Homepage: http://www.flughafen-linz.at/

Metar

2021/08/02 07:20
LOWL 020720Z 27009KT 9999 FEW013 BKN026 16/13 Q1016 NOSIG

Taf

2021/08/02 06:21
TAF LOWL 020515Z 0206/0306 26008KT 9999 SCT020 BKN060 TX22/0215Z TN12/0304Z
BECMG 0218/0220 VRB02KT CAVOK
TEMPO 0302/0306 0400 FG BKN002

Webcams

Airport
Gewünschte Webcam nicht vorhanden? Dann fügen Sie eine hinzu. Sie wird dann so schnell wie möglich freigeschaltet
Url: Title: